Time;durP1;ratioP1;P1;durP2;ratioP2;P2;SDS_P1;SDS_P2;PMS_P1;PMS_P2;Temp;Humidity;BMP_temperature;BMP_pressure;BME280_temperature;BME280_humidity;BME280_pressure;Samples;Min_cycle;Max_cycle;Signal;HPM_P1;HPM_P2
2022/05/21 00:01:59;;;;;;;;;;;10.70;99.90;;;;;;5086834;28;19926;-76
2022/05/21 00:04:25;;;;;;;;;;;10.70;99.90;;;;;;5081187;28;20153;-73
2022/05/21 00:06:50;;;;;;;;;;;10.60;99.90;;;;;;5066464;28;19920;-76
2022/05/21 00:09:18;;;;;;;;;;;10.80;99.90;;;;;;5084053;28;19927;-75
2022/05/21 00:11:44;;;;;;;;;;;10.80;99.90;;;;;;5110201;27;20002;-77
2022/05/21 00:14:09;;;;;;;;;;;10.80;99.90;;;;;;5080639;28;20010;-74
2022/05/21 00:16:35;;;;;;;;;;;10.80;99.90;;;;;;5107223;27;20403;-75
2022/05/21 00:19:00;;;;;;;;;;;10.70;99.90;;;;;;5081366;28;20425;-76
2022/05/21 00:21:26;;;;;;;;;;;10.90;99.90;;;;;;5078781;28;20010;-77
2022/05/21 00:23:52;;;;;;;;;;;10.80;99.90;;;;;;5081400;28;20061;-73
2022/05/21 00:26:17;;;;;;;;;;;10.80;99.90;;;;;;5086723;28;19920;-77
2022/05/21 00:28:44;;;;;;;;;;;10.90;99.90;;;;;;5085865;28;20008;-75
2022/05/21 00:31:11;;;;;;;;;;;10.80;99.90;;;;;;5083571;28;19941;-74
2022/05/21 00:33:36;;;;;;;;;;;10.80;99.90;;;;;;5065598;28;19924;-75
2022/05/21 00:36:02;;;;;;;;;;;10.70;99.90;;;;;;5081100;28;19920;-73
2022/05/21 00:38:27;;;;;;;;;;;10.70;99.90;;;;;;5060646;28;19936;-73
2022/05/21 00:40:53;;;;;;;;;;;10.90;99.90;;;;;;5077884;28;19924;-74
2022/05/21 00:43:42;;;;;;;;;;;10.80;99.90;;;;;;5081251;28;21407;-73
2022/05/21 00:46:09;;;;;;;;;;;10.90;99.90;;;;;;5073838;28;19959;-73
2022/05/21 00:48:35;;;;;;;;;;;10.80;99.90;;;;;;5079064;28;20024;-73
2022/05/21 00:51:01;;;;;;;;;;;10.90;99.90;;;;;;5112228;27;19963;-72
2022/05/21 00:53:27;;;;;;;;;;;10.80;99.90;;;;;;5078722;28;20404;-75
2022/05/21 00:55:53;;;;;;;;;;;11.00;99.90;;;;;;5081696;28;19924;-73
2022/05/21 01:01:05;;;;;;;;;;;11.10;99.90;;;;;;5109795;28;19955;-71
2022/05/21 01:03:31;;;;;;;;;;;10.90;99.90;;;;;;5082220;28;19920;-72
2022/05/21 01:05:57;;;;;;;;;;;10.90;99.90;;;;;;5081176;28;19935;-74
2022/05/21 01:08:23;;;;;;;;;;;11.00;99.90;;;;;;5064890;28;19924;-75
2022/05/21 01:10:53;;;;;;;;;;;11.00;99.90;;;;;;5085858;28;19923;-76
2022/05/21 01:13:19;;;;;;;;;;;11.00;99.90;;;;;;5067181;28;20314;-74
2022/05/21 01:15:47;;;;;;;;;;;11.10;99.90;;;;;;5079941;28;19928;-75
2022/05/21 01:18:12;;;;;;;;;;;11.10;99.90;;;;;;5091203;28;19920;-77
2022/05/21 01:20:38;;;;;;;;;;;11.30;99.90;;;;;;5090895;28;20326;-76
2022/05/21 01:23:04;;;;;;;;;;;11.30;99.90;;;;;;5062524;28;19928;-74
2022/05/21 01:25:31;;;;;;;;;;;11.40;99.90;;;;;;5075166;28;20421;-75
2022/05/21 01:27:58;;;;;;;;;;;11.40;99.90;;;;;;5083719;28;19931;-74
2022/05/21 01:30:27;;;;;;;;;;;11.40;99.90;;;;;;5084786;28;20410;-75
2022/05/21 01:32:52;;;;;;;;;;;11.20;99.90;;;;;;5110125;28;20246;-77
2022/05/21 01:35:21;;;;;;;;;;;11.30;99.90;;;;;;5087212;28;20087;-75
2022/05/21 01:37:46;;;;;;;;;;;11.30;99.90;;;;;;5086584;28;19924;-72
2022/05/21 01:40:13;;;;;;;;;;;11.30;99.90;;;;;;5078141;28;19950;-71
2022/05/21 01:42:38;;;;;;;;;;;11.60;99.90;;;;;;5080095;28;19998;-73
2022/05/21 01:45:04;;;;;;;;;;;11.60;99.90;;;;;;5109436;27;19955;-71
2022/05/21 01:47:31;;;;;;;;;;;11.60;99.90;;;;;;5081075;28;20430;-72
2022/05/21 01:49:57;;;;;;;;;;;11.50;99.90;;;;;;5061723;28;19969;-73
2022/05/21 01:52:22;;;;;;;;;;;11.50;99.90;;;;;;5083855;28;20281;-72
2022/05/21 01:54:48;;;;;;;;;;;11.60;99.90;;;;;;5064013;28;19920;-75
2022/05/21 01:57:13;;;;;;;;;;;11.60;99.90;;;;;;5113059;27;19994;-74
2022/05/21 01:59:39;;;;;;;;;;;11.60;99.90;;;;;;5059647;28;19983;-75
2022/05/21 02:02:05;;;;;;;;;;;11.70;99.90;;;;;;5086800;28;20550;-72
2022/05/21 02:04:31;;;;;;;;;;;11.70;99.90;;;;;;5115982;27;19920;-74
2022/05/21 02:06:56;;;;;;;;;;;11.60;99.90;;;;;;5078947;28;19927;-75
2022/05/21 02:09:22;;;;;;;;;;;11.80;99.90;;;;;;5092239;28;20683;-78
2022/05/21 02:11:48;;;;;;;;;;;11.60;99.90;;;;;;5070611;28;20362;-69
2022/05/21 02:14:13;;;;;;;;;;;11.70;99.90;;;;;;5114992;27;20279;-73
2022/05/21 02:16:39;;;;;;;;;;;11.80;99.90;;;;;;5078847;28;19932;-72
2022/05/21 02:19:05;;;;;;;;;;;11.70;99.90;;;;;;5089421;28;19927;-71
2022/05/21 02:21:32;;;;;;;;;;;11.70;99.90;;;;;;5065956;28;19985;-72
2022/05/21 02:23:57;;;;;;;;;;;11.90;99.90;;;;;;5088542;28;20339;-71
2022/05/21 02:26:23;;;;;;;;;;;11.70;99.90;;;;;;5085318;28;19923;-75
2022/05/21 02:28:48;;;;;;;;;;;11.70;99.90;;;;;;5088405;28;19947;-73
2022/05/21 02:31:14;;;;;;;;;;;12.00;99.90;;;;;;5074699;28;19966;-70
2022/05/21 02:33:40;;;;;;;;;;;12.00;99.90;;;;;;5090144;28;20407;-72
2022/05/21 02:36:05;;;;;;;;;;;11.90;99.90;;;;;;5089955;28;20623;-72
2022/05/21 02:41:16;;;;;;;;;;;11.80;99.90;;;;;;5080409;28;20386;-76
2022/05/21 02:43:43;;;;;;;;;;;11.90;99.90;;;;;;5083467;28;20331;-73
2022/05/21 02:46:12;;;;;;;;;;;12.00;99.90;;;;;;5082907;28;20148;-75
2022/05/21 02:48:37;;;;;;;;;;;12.00;99.90;;;;;;5091634;28;19974;-76
2022/05/21 02:51:03;;;;;;;;;;;11.90;99.90;;;;;;5083857;28;19956;-75
2022/05/21 02:53:28;;;;;;;;;;;12.00;99.90;;;;;;5111270;27;19920;-73
2022/05/21 02:55:55;;;;;;;;;;;12.10;99.90;;;;;;5083278;28;19928;-75
2022/05/21 02:58:21;;;;;;;;;;;11.90;99.90;;;;;;5089031;28;19971;-73
2022/05/21 03:00:47;;;;;;;;;;;11.90;99.90;;;;;;5078759;28;20046;-71
2022/05/21 03:03:13;;;;;;;;;;;12.20;99.90;;;;;;5077354;28;20007;-68
2022/05/21 03:05:39;;;;;;;;;;;12.10;99.90;;;;;;5082369;28;19920;-71
2022/05/21 03:10:51;;;;;;;;;;;12.20;99.90;;;;;;5078287;28;19962;-68
2022/05/21 03:13:16;;;;;;;;;;;12.10;99.90;;;;;;5111989;27;20406;-70
2022/05/21 03:15:42;;;;;;;;;;;12.10;99.90;;;;;;5108337;27;19920;-70
2022/05/21 03:18:09;;;;;;;;;;;12.30;99.90;;;;;;5073396;28;19920;-73
2022/05/21 03:20:34;;;;;;;;;;;12.10;99.90;;;;;;5078767;28;19986;-68
2022/05/21 03:23:00;;;;;;;;;;;12.20;99.90;;;;;;5079246;28;19959;-71
2022/05/21 03:25:26;;;;;;;;;;;12.20;99.90;;;;;;5085830;28;19971;-70
2022/05/21 03:27:51;;;;;;;;;;;12.50;99.90;;;;;;5112673;27;20335;-68
2022/05/21 03:30:18;;;;;;;;;;;12.30;99.90;;;;;;5077666;28;19921;-73
2022/05/21 03:32:44;;;;;;;;;;;12.50;99.90;;;;;;5079624;28;19928;-73
2022/05/21 03:35:10;;;;;;;;;;;12.30;99.90;;;;;;5080313;28;19973;-69
2022/05/21 03:37:37;;;;;;;;;;;12.60;99.90;;;;;;5061478;28;20290;-67
2022/05/21 03:40:04;;;;;;;;;;;12.40;99.90;;;;;;5081137;28;19925;-66
2022/05/21 03:42:29;;;;;;;;;;;12.40;99.90;;;;;;5064854;28;19928;-72
2022/05/21 03:44:55;;;;;;;;;;;12.40;99.90;;;;;;5086462;28;19920;-70
2022/05/21 03:47:20;;;;;;;;;;;12.50;99.90;;;;;;5084991;28;19920;-73
2022/05/21 03:49:45;;;;;;;;;;;12.50;99.90;;;;;;5082248;28;20332;-71
2022/05/21 03:52:11;;;;;;;;;;;12.50;99.90;;;;;;5075571;28;20324;-67
2022/05/21 03:54:36;;;;;;;;;;;12.70;99.90;;;;;;5083036;28;21148;-69
2022/05/21 03:57:02;;;;;;;;;;;12.60;99.90;;;;;;5074919;28;20385;-69
2022/05/21 03:59:28;;;;;;;;;;;12.60;99.90;;;;;;5107010;27;19924;-70
2022/05/21 04:01:53;;;;;;;;;;;12.60;99.90;;;;;;5074051;28;20015;-69
2022/05/21 04:04:18;;;;;;;;;;;12.80;99.90;;;;;;5075860;28;19939;-73
2022/05/21 04:06:44;;;;;;;;;;;12.80;99.90;;;;;;5092349;28;19931;-77
2022/05/21 04:09:10;;;;;;;;;;;12.80;99.90;;;;;;5056802;28;20046;-73
2022/05/21 04:11:35;;;;;;;;;;;13.00;99.90;;;;;;5060482;28;19916;-76
2022/05/21 04:14:01;;;;;;;;;;;13.00;99.90;;;;;;5078022;28;19927;-74
2022/05/21 04:16:26;;;;;;;;;;;13.10;99.90;;;;;;5062634;28;19975;-77
2022/05/21 04:18:53;;;;;;;;;;;13.00;99.90;;;;;;5105530;27;19924;-69
2022/05/21 04:21:19;;;;;;;;;;;13.00;99.90;;;;;;5109705;27;20434;-69
2022/05/21 04:23:44;;;;;;;;;;;13.00;99.90;;;;;;5080138;28;19920;-68
2022/05/21 04:26:10;;;;;;;;;;;13.00;99.90;;;;;;5109243;27;19928;-71
2022/05/21 04:28:35;;;;;;;;;;;13.10;99.90;;;;;;5075386;28;20372;-77
2022/05/21 04:31:01;;;;;;;;;;;13.10;99.90;;;;;;5083684;28;19920;-67
2022/05/21 04:33:26;;;;;;;;;;;13.00;99.90;;;;;;5080379;28;20367;-75
2022/05/21 04:38:36;;;;;;;;;;;13.00;99.90;;;;;;5111564;27;20286;-73
2022/05/21 04:41:01;;;;;;;;;;;13.00;99.90;;;;;;5083925;28;19924;-71
2022/05/21 04:43:27;;;;;;;;;;;13.10;99.90;;;;;;5080147;28;19920;-72
2022/05/21 04:45:55;;;;;;;;;;;13.10;99.90;;;;;;5081011;28;20619;-72
2022/05/21 04:48:21;;;;;;;;;;;13.20;99.90;;;;;;5077854;28;20395;-73
2022/05/21 04:50:47;;;;;;;;;;;13.00;99.90;;;;;;5078184;28;19975;-70
2022/05/21 04:53:12;;;;;;;;;;;13.20;99.90;;;;;;5078969;28;20283;-74
2022/05/21 04:55:38;;;;;;;;;;;13.10;99.90;;;;;;5083710;28;20022;-75
2022/05/21 04:58:03;;;;;;;;;;;13.10;99.90;;;;;;5085062;28;19928;-75
2022/05/21 05:00:29;;;;;;;;;;;13.10;99.90;;;;;;5079690;28;20355;-73
2022/05/21 05:02:54;;;;;;;;;;;13.20;99.90;;;;;;5107847;28;19921;-76
2022/05/21 05:05:20;;;;;;;;;;;13.10;99.90;;;;;;5077389;28;19943;-70
2022/05/21 05:07:45;;;;;;;;;;;13.20;99.90;;;;;;5083591;28;19920;-70
2022/05/21 05:10:11;;;;;;;;;;;13.20;99.90;;;;;;5084358;28;20010;-69
2022/05/21 05:12:36;;;;;;;;;;;13.20;99.90;;;;;;5086142;28;19921;-68
2022/05/21 05:15:02;;;;;;;;;;;13.10;99.90;;;;;;5085274;28;20016;-68
2022/05/21 05:17:28;;;;;;;;;;;13.20;99.90;;;;;;5111897;27;19920;-74
2022/05/21 05:19:56;;;;;;;;;;;13.20;99.90;;;;;;5084904;28;20377;-67
2022/05/21 05:22:22;;;;;;;;;;;13.20;99.90;;;;;;5122228;27;20366;-70
2022/05/21 05:24:48;;;;;;;;;;;13.10;99.90;;;;;;5088909;28;19927;-76
2022/05/21 05:27:14;;;;;;;;;;;13.10;99.90;;;;;;5084571;28;19920;-77
2022/05/21 05:29:39;;;;;;;;;;;13.20;99.90;;;;;;5085363;28;20394;-71
2022/05/21 05:32:05;;;;;;;;;;;13.30;99.90;;;;;;5080882;28;19940;-73
2022/05/21 05:34:30;;;;;;;;;;;13.30;99.90;;;;;;5074931;28;19920;-70
2022/05/21 05:36:56;;;;;;;;;;;13.20;99.90;;;;;;5066496;28;19931;-75
2022/05/21 05:39:22;;;;;;;;;;;13.30;99.90;;;;;;5079913;28;19925;-73
2022/05/21 05:41:47;;;;;;;;;;;13.30;99.90;;;;;;5083936;28;19927;-74
2022/05/21 05:44:13;;;;;;;;;;;13.20;99.90;;;;;;5066650;28;20306;-80
2022/05/21 05:46:38;;;;;;;;;;;13.30;99.90;;;;;;5067009;28;19920;-76
2022/05/21 05:49:04;;;;;;;;;;;13.20;99.90;;;;;;5103479;27;20427;-72
2022/05/21 05:51:29;;;;;;;;;;;13.30;99.90;;;;;;5079060;28;20690;-74
2022/05/21 05:53:55;;;;;;;;;;;13.40;99.90;;;;;;5072753;28;19920;-76
2022/05/21 05:56:21;;;;;;;;;;;13.50;99.90;;;;;;5085090;28;19928;-74
2022/05/21 06:01:30;;;;;;;;;;;13.80;99.90;;;;;;5085637;28;20033;-77
2022/05/21 06:03:56;;;;;;;;;;;13.80;99.90;;;;;;5088446;28;20014;-76
2022/05/21 06:06:22;;;;;;;;;;;13.90;99.90;;;;;;5109929;27;19956;-74
2022/05/21 06:08:47;;;;;;;;;;;13.90;99.90;;;;;;5118017;27;20077;-75
2022/05/21 06:11:14;;;;;;;;;;;13.80;99.90;;;;;;5087903;28;20066;-77
2022/05/21 06:13:39;;;;;;;;;;;13.80;99.90;;;;;;5082506;28;19924;-78
2022/05/21 06:16:05;;;;;;;;;;;13.80;99.90;;;;;;5080090;28;19927;-73
2022/05/21 06:18:30;;;;;;;;;;;13.70;99.90;;;;;;5083581;28;19958;-77
2022/05/21 06:21:03;;;;;;;;;;;13.60;99.90;;;;;;5080919;28;19932;-79
2022/05/21 06:23:30;;;;;;;;;;;13.70;99.90;;;;;;5080395;28;19928;-80
2022/05/21 06:25:58;;;;;;;;;;;13.60;99.90;;;;;;5076022;28;19952;-78
2022/05/21 06:28:23;;;;;;;;;;;13.70;99.90;;;;;;5108417;27;19969;-74
2022/05/21 06:30:49;;;;;;;;;;;13.70;99.90;;;;;;5093934;28;20376;-78
2022/05/21 06:33:17;;;;;;;;;;;13.70;99.90;;;;;;5112397;27;19927;-80
2022/05/21 06:35:44;;;;;;;;;;;13.90;99.90;;;;;;5084604;28;20002;-72
2022/05/21 06:38:10;;;;;;;;;;;13.90;99.90;;;;;;5091266;28;20390;-81
2022/05/21 06:40:35;;;;;;;;;;;14.00;99.90;;;;;;5086904;28;19932;-74
2022/05/21 06:43:01;;;;;;;;;;;14.00;99.90;;;;;;5085437;28;19920;-77
2022/05/21 06:45:31;;;;;;;;;;;14.10;99.90;;;;;;5082959;28;19927;-79
2022/05/21 06:48:04;;;;;;;;;;;14.10;99.90;;;;;;5079822;28;19924;-73
2022/05/21 06:50:30;;;;;;;;;;;14.10;99.90;;;;;;5081210;28;19920;-72
2022/05/21 06:52:56;;;;;;;;;;;14.20;99.90;;;;;;5084658;28;19920;-76
2022/05/21 06:55:22;;;;;;;;;;;14.20;99.90;;;;;;5086478;28;19924;-77
2022/05/21 06:57:48;;;;;;;;;;;14.10;99.90;;;;;;5069156;28;19936;-81
2022/05/21 07:00:14;;;;;;;;;;;14.20;99.90;;;;;;5066444;28;20333;-79
2022/05/21 07:02:40;;;;;;;;;;;14.20;99.90;;;;;;5107017;27;19920;-74
2022/05/21 07:07:49;;;;;;;;;;;14.30;99.90;;;;;;5077767;28;19927;-79
2022/05/21 07:10:19;;;;;;;;;;;14.30;99.90;;;;;;5080394;28;19924;-72
2022/05/21 07:12:45;;;;;;;;;;;14.30;99.90;;;;;;5078799;28;19962;-73
2022/05/21 07:15:10;;;;;;;;;;;14.30;99.90;;;;;;5079274;28;20016;-75
2022/05/21 07:17:36;;;;;;;;;;;14.50;99.90;;;;;;5113312;27;19932;-76
2022/05/21 07:20:03;;;;;;;;;;;14.50;99.90;;;;;;5085671;28;20367;-72
2022/05/21 07:22:28;;;;;;;;;;;14.50;99.90;;;;;;5085673;28;19924;-78
2022/05/21 07:24:54;;;;;;;;;;;14.70;99.90;;;;;;5080535;28;19927;-75
2022/05/21 07:27:19;;;;;;;;;;;14.80;99.90;;;;;;5089119;28;19927;-76
2022/05/21 07:29:45;;;;;;;;;;;14.90;99.90;;;;;;5087200;28;20007;-76
2022/05/21 07:32:20;;;;;;;;;;;14.80;99.90;;;;;;5089485;28;20274;-77
2022/05/21 07:34:46;;;;;;;;;;;14.80;99.90;;;;;;5115980;27;19931;-72
2022/05/21 07:37:12;;;;;;;;;;;14.80;99.90;;;;;;5110355;27;19920;-73
2022/05/21 07:39:38;;;;;;;;;;;14.80;99.90;;;;;;5083285;28;19928;-74
2022/05/21 07:42:04;;;;;;;;;;;14.60;99.90;;;;;;5087062;28;20298;-75
2022/05/21 07:44:30;;;;;;;;;;;14.60;99.90;;;;;;5089439;28;19924;-73
2022/05/21 07:46:55;;;;;;;;;;;14.70;99.90;;;;;;5081400;28;19927;-73
2022/05/21 07:49:20;;;;;;;;;;;14.70;99.90;;;;;;5067270;28;19967;-74
2022/05/21 07:51:46;;;;;;;;;;;14.70;99.90;;;;;;5075734;28;19920;-75
2022/05/21 07:54:12;;;;;;;;;;;14.80;99.90;;;;;;5073265;28;19924;-80
2022/05/21 07:56:39;;;;;;;;;;;15.00;99.90;;;;;;5073628;28;19928;-77
2022/05/21 07:59:05;;;;;;;;;;;15.20;99.90;;;;;;5073970;28;19928;-76
2022/05/21 08:01:30;;;;;;;;;;;15.50;99.90;;;;;;5108993;28;19920;-80
2022/05/21 08:03:56;;;;;;;;;;;15.70;99.90;;;;;;5091567;28;20034;-78
2022/05/21 08:06:21;;;;;;;;;;;15.60;99.90;;;;;;5073492;28;19927;-74
2022/05/21 08:08:49;;;;;;;;;;;15.50;99.90;;;;;;5091717;28;19969;-76
2022/05/21 08:11:15;;;;;;;;;;;15.30;99.90;;;;;;5091253;28;19963;-76
2022/05/21 08:13:40;;;;;;;;;;;15.10;99.90;;;;;;5073941;28;20397;-79
2022/05/21 08:16:07;;;;;;;;;;;15.00;99.90;;;;;;5084733;28;20062;-74
2022/05/21 08:18:32;;;;;;;;;;;15.00;99.90;;;;;;5072659;28;20385;-78
2022/05/21 08:20:58;;;;;;;;;;;15.10;99.90;;;;;;5125061;27;19924;-81
2022/05/21 08:28:54;;;;;;;;;;;15.00;99.90;;;;;;5083358;28;19930;-71
2022/05/21 08:31:19;;;;;;;;;;;15.30;99.90;;;;;;5081473;28;19920;-80
2022/05/21 08:33:45;;;;;;;;;;;15.20;99.90;;;;;;5090981;28;19920;-76
2022/05/21 08:36:10;;;;;;;;;;;15.20;99.90;;;;;;5077213;28;19962;-76
2022/05/21 08:38:36;;;;;;;;;;;15.20;99.90;;;;;;5081230;28;19991;-71
2022/05/21 08:41:13;;;;;;;;;;;15.10;99.90;;;;;;5087227;28;19923;-74
2022/05/21 08:43:58;;;;;;;;;;;15.10;99.90;;;;;;5077285;28;19929;-74
2022/05/21 08:46:26;;;;;;;;;;;15.10;99.90;;;;;;5085862;28;20310;-73
2022/05/21 08:48:59;;;;;;;;;;;15.20;99.90;;;;;;5084187;28;20339;-79
2022/05/21 08:51:28;;;;;;;;;;;15.60;99.90;;;;;;5083418;28;19928;-72
2022/05/21 08:53:54;;;;;;;;;;;15.80;99.90;;;;;;5077281;28;19920;-73
2022/05/21 08:56:20;;;;;;;;;;;16.00;99.90;;;;;;5075292;28;19924;-75
2022/05/21 08:58:48;;;;;;;;;;;16.00;99.90;;;;;;5063066;28;20011;-74
2022/05/21 09:01:16;;;;;;;;;;;15.70;99.90;;;;;;5054427;28;20394;-77
2022/05/21 09:03:42;;;;;;;;;;;15.80;99.90;;;;;;5086209;28;19920;-73
2022/05/21 09:06:11;;;;;;;;;;;15.70;99.90;;;;;;5114156;27;20306;-78
2022/05/21 09:08:40;;;;;;;;;;;15.90;99.90;;;;;;5065293;28;20391;-76
2022/05/21 09:11:11;;;;;;;;;;;16.10;99.90;;;;;;5087586;28;20382;-82
2022/05/21 09:13:46;;;;;;;;;;;15.90;99.90;;;;;;5083031;28;20266;-74
2022/05/21 09:18:58;;;;;;;;;;;15.80;99.90;;;;;;5112794;28;19931;-79
2022/05/21 09:21:25;;;;;;;;;;;16.10;99.90;;;;;;5081198;28;19928;-77
2022/05/21 09:23:51;;;;;;;;;;;16.10;99.90;;;;;;5082735;28;19920;-77
2022/05/21 09:26:19;;;;;;;;;;;16.20;99.90;;;;;;5071118;28;20018;-74
2022/05/21 09:28:45;;;;;;;;;;;16.40;99.90;;;;;;5069134;28;19939;-72
2022/05/21 09:31:11;;;;;;;;;;;16.50;99.90;;;;;;5091306;28;19928;-74
2022/05/21 09:33:45;;;;;;;;;;;16.40;99.90;;;;;;5065222;28;20012;-76
2022/05/21 09:36:18;;;;;;;;;;;16.30;99.90;;;;;;5069311;28;19986;-74
2022/05/21 09:38:48;;;;;;;;;;;16.30;99.90;;;;;;5110919;28;20298;-77
2022/05/21 09:41:19;;;;;;;;;;;16.30;99.90;;;;;;5113423;28;19935;-73
2022/05/21 09:46:35;;;;;;;;;;;16.60;99.90;;;;;;5107710;28;19975;-79
2022/05/21 09:49:17;;;;;;;;;;;16.70;99.90;;;;;;5071173;28;20010;-79
2022/05/21 09:51:52;;;;;;;;;;;16.70;99.90;;;;;;5078021;28;19931;-78
2022/05/21 09:54:19;;;;;;;;;;;16.60;99.90;;;;;;5111036;28;20311;-80
2022/05/21 09:56:49;;;;;;;;;;;16.20;99.90;;;;;;5065124;28;19924;-79
2022/05/21 09:59:16;;;;;;;;;;;16.00;99.90;;;;;;5062873;28;20243;-74
2022/05/21 10:01:44;;;;;;;;;;;16.10;99.90;;;;;;5068364;28;19926;-70
2022/05/21 10:04:28;;;;;;;;;;;16.20;99.90;;;;;;5082588;28;19928;-81
2022/05/21 10:06:57;;;;;;;;;;;16.30;99.90;;;;;;5088779;28;20299;-74
2022/05/21 10:12:24;;;;;;;;;;;16.60;99.90;;;;;;5117376;27;20043;-78
2022/05/21 10:14:53;;;;;;;;;;;16.50;99.90;;;;;;5077766;28;19924;-76
2022/05/21 10:17:39;;;;;;;;;;;16.30;99.90;;;;;;5080662;28;20229;-78
2022/05/21 10:20:18;;;;;;;;;;;16.30;99.90;;;;;;5082655;28;19936;-75
2022/05/21 10:22:48;;;;;;;;;;;16.60;99.90;;;;;;5081945;28;19920;-76
2022/05/21 10:25:15;;;;;;;;;;;16.80;99.90;;;;;;5082003;28;19920;-78
2022/05/21 10:27:56;;;;;;;;;;;16.90;99.90;;;;;;5097788;28;19944;-78
2022/05/21 10:30:41;;;;;;;;;;;17.00;99.90;;;;;;5078111;28;19931;-76
2022/05/21 10:33:19;;;;;;;;;;;17.00;99.90;;;;;;5063109;28;19955;-75
2022/05/21 10:35:47;;;;;;;;;;;17.10;99.90;;;;;;5073061;28;20007;-76
2022/05/21 10:38:16;;;;;;;;;;;17.20;99.90;;;;;;5091825;28;20516;-80
2022/05/21 10:40:57;;;;;;;;;;;17.30;99.90;;;;;;5074226;28;20382;-76
2022/05/21 10:43:32;;;;;;;;;;;17.10;99.90;;;;;;5088729;28;19990;-77
2022/05/21 10:46:19;;;;;;;;;;;16.90;99.90;;;;;;5073779;28;19928;-76
2022/05/21 10:48:52;;;;;;;;;;;16.60;99.90;;;;;;5085524;28;20365;-78
2022/05/21 10:51:18;;;;;;;;;;;16.70;99.90;;;;;;5103601;28;19969;-79
2022/05/21 10:54:02;;;;;;;;;;;16.80;99.90;;;;;;5089511;28;19920;-76
2022/05/21 10:56:44;;;;;;;;;;;16.90;99.90;;;;;;5085407;28;19927;-71
2022/05/21 10:59:33;;;;;;;;;;;16.90;99.90;;;;;;5097812;27;20011;-75
2022/05/21 11:02:08;;;;;;;;;;;16.80;99.90;;;;;;5077118;28;19970;-74
2022/05/21 11:04:46;;;;;;;;;;;16.70;99.90;;;;;;5072586;28;20458;-75
2022/05/21 11:07:23;;;;;;;;;;;16.70;99.90;;;;;;5066860;28;19920;-76
2022/05/21 11:10:09;;;;;;;;;;;16.50;99.90;;;;;;5068829;28;19965;-75
2022/05/21 11:12:37;;;;;;;;;;;16.60;99.90;;;;;;5069959;28;19925;-72
2022/05/21 11:15:09;;;;;;;;;;;16.70;99.90;;;;;;5090462;28;20026;-77
2022/05/21 11:17:53;;;;;;;;;;;16.90;99.90;;;;;;5091182;28;19920;-77
2022/05/21 11:20:21;;;;;;;;;;;17.00;99.90;;;;;;5093685;28;19935;-78
2022/05/21 11:22:56;;;;;;;;;;;17.00;99.90;;;;;;5069007;28;19935;-77
2022/05/21 11:25:40;;;;;;;;;;;16.80;99.90;;;;;;5082208;28;19960;-77
2022/05/21 11:28:09;;;;;;;;;;;16.80;99.90;;;;;;5090755;28;19928;-71
2022/05/21 11:30:35;;;;;;;;;;;16.80;99.90;;;;;;5086082;28;19926;-75
2022/05/21 11:38:36;;;;;;;;;;;16.60;99.90;;;;;;5083386;28;19930;-72
2022/05/21 11:43:58;;;;;;;;;;;16.40;99.90;;;;;;5086226;28;19927;-73
2022/05/21 11:46:34;;;;;;;;;;;16.40;99.90;;;;;;5073699;28;19930;-80
2022/05/21 11:49:19;;;;;;;;;;;16.30;99.90;;;;;;5089664;28;19920;-78
2022/05/21 11:51:44;;;;;;;;;;;16.20;99.90;;;;;;5084673;28;20432;-77
2022/05/21 11:54:29;;;;;;;;;;;16.20;99.90;;;;;;5072812;28;19920;-79
2022/05/21 11:57:03;;;;;;;;;;;16.20;99.90;;;;;;5084550;28;19920;-74
2022/05/21 11:59:48;;;;;;;;;;;16.30;99.90;;;;;;5087563;28;19920;-76
2022/05/21 12:02:17;;;;;;;;;;;16.40;99.90;;;;;;5062352;28;19920;-77
2022/05/21 12:04:43;;;;;;;;;;;16.40;99.90;;;;;;5084186;28;19927;-73
2022/05/21 12:07:13;;;;;;;;;;;16.50;99.90;;;;;;5086355;28;20391;-76
2022/05/21 12:09:56;;;;;;;;;;;16.50;99.90;;;;;;5106466;27;19927;-74
2022/05/21 12:12:24;;;;;;;;;;;16.40;99.90;;;;;;5076107;28;19969;-72
2022/05/21 12:14:54;;;;;;;;;;;16.40;99.90;;;;;;5090382;28;19921;-75
2022/05/21 12:17:55;;;;;;;;;;;16.50;99.90;;;;;;5093359;28;19927;-73
2022/05/21 12:20:40;;;;;;;;;;;16.40;99.90;;;;;;5056172;28;19935;-74
2022/05/21 12:23:10;;;;;;;;;;;16.30;99.90;;;;;;5107151;27;20329;-74
2022/05/21 12:25:44;;;;;;;;;;;16.20;99.90;;;;;;5109235;27;19964;-77
2022/05/21 12:28:10;;;;;;;;;;;16.40;99.90;;;;;;5067812;28;19924;-77
2022/05/21 12:30:36;;;;;;;;;;;16.40;99.90;;;;;;5086472;28;19927;-73
2022/05/21 12:33:02;;;;;;;;;;;16.40;99.90;;;;;;5063248;28;19920;-77
2022/05/21 12:35:47;;;;;;;;;;;16.60;99.90;;;;;;5084895;28;20006;-76
2022/05/21 12:38:25;;;;;;;;;;;16.60;99.90;;;;;;5079732;28;19920;-78
2022/05/21 12:40:54;;;;;;;;;;;16.50;99.90;;;;;;5089245;28;20338;-77
2022/05/21 12:43:20;;;;;;;;;;;16.70;99.90;;;;;;5090151;28;20366;-74
2022/05/21 12:45:49;;;;;;;;;;;16.80;99.90;;;;;;5071352;28;19920;-77
2022/05/21 12:48:32;;;;;;;;;;;16.90;99.90;;;;;;5070208;28;20254;-73
2022/05/21 12:50:59;;;;;;;;;;;17.00;99.90;;;;;;5069420;28;19925;-80
2022/05/21 12:53:32;;;;;;;;;;;16.90;99.90;;;;;;5061478;28;19927;-74
2022/05/21 12:56:02;;;;;;;;;;;16.90;99.90;;;;;;5052982;28;20349;-75
2022/05/21 12:58:28;;;;;;;;;;;16.80;99.90;;;;;;5069481;28;19928;-73
2022/05/21 13:00:55;;;;;;;;;;;16.70;99.90;;;;;;5069181;28;19929;-77
2022/05/21 13:03:21;;;;;;;;;;;16.70;99.90;;;;;;5069552;28;19970;-74
2022/05/21 13:05:50;;;;;;;;;;;16.60;99.90;;;;;;5052790;28;20007;-75
2022/05/21 13:08:15;;;;;;;;;;;16.40;99.90;;;;;;5072178;28;19920;-76
2022/05/21 13:10:51;;;;;;;;;;;16.40;99.90;;;;;;5089209;28;19943;-73
2022/05/21 13:13:19;;;;;;;;;;;16.50;99.90;;;;;;5089586;28;19970;-78
2022/05/21 13:15:50;;;;;;;;;;;16.50;99.90;;;;;;5073100;28;19927;-75
2022/05/21 13:18:27;;;;;;;;;;;16.50;99.90;;;;;;5089632;28;20014;-75
2022/05/21 13:21:12;;;;;;;;;;;16.50;99.90;;;;;;5104463;28;19989;-75
2022/05/21 13:23:40;;;;;;;;;;;16.60;99.90;;;;;;5081375;28;19931;-75
2022/05/21 13:26:06;;;;;;;;;;;16.80;99.90;;;;;;5075437;28;19924;-75
2022/05/21 13:28:31;;;;;;;;;;;17.00;99.90;;;;;;5072477;28;20033;-74
2022/05/21 13:30:56;;;;;;;;;;;17.00;99.90;;;;;;5090572;28;19920;-75
2022/05/21 13:33:30;;;;;;;;;;;17.00;99.90;;;;;;5093169;28;19923;-77
2022/05/21 13:35:57;;;;;;;;;;;17.00;99.90;;;;;;5093731;28;19920;-72
2022/05/21 13:38:32;;;;;;;;;;;17.00;99.90;;;;;;5075953;28;19924;-75
2022/05/21 13:40:58;;;;;;;;;;;16.90;99.90;;;;;;5095769;28;19927;-77
2022/05/21 13:43:28;;;;;;;;;;;16.80;99.90;;;;;;5098629;28;20496;-75
2022/05/21 13:45:57;;;;;;;;;;;16.70;99.90;;;;;;5099716;28;19924;-78
2022/05/21 13:48:28;;;;;;;;;;;16.60;99.90;;;;;;5105113;28;19980;-75
2022/05/21 13:50:53;;;;;;;;;;;16.60;99.90;;;;;;5091332;28;20366;-79
2022/05/21 13:53:22;;;;;;;;;;;16.70;99.90;;;;;;5092781;28;20015;-80
2022/05/21 13:55:59;;;;;;;;;;;16.80;99.90;;;;;;5086308;28;19932;-74
2022/05/21 13:58:29;;;;;;;;;;;16.80;99.90;;;;;;5073006;28;20245;-73
2022/05/21 14:00:56;;;;;;;;;;;16.80;99.90;;;;;;5072545;28;20413;-73
2022/05/21 14:03:29;;;;;;;;;;;16.90;99.90;;;;;;5073046;28;20283;-72
2022/05/21 14:05:56;;;;;;;;;;;16.80;99.90;;;;;;5070111;28;19927;-76
2022/05/21 14:08:28;;;;;;;;;;;16.70;99.90;;;;;;5090899;28;19927;-74
2022/05/21 14:10:58;;;;;;;;;;;16.50;99.90;;;;;;5126481;27;19920;-75
2022/05/21 14:13:36;;;;;;;;;;;16.60;99.90;;;;;;5081625;28;19928;-76
2022/05/21 14:16:22;;;;;;;;;;;17.20;99.90;;;;;;5072362;28;19983;-74
2022/05/21 14:18:59;;;;;;;;;;;17.50;99.90;;;;;;5072356;28;19986;-74
2022/05/21 14:21:26;;;;;;;;;;;17.60;99.90;;;;;;5093930;28;20379;-75
2022/05/21 14:24:05;;;;;;;;;;;17.90;99.90;;;;;;5113017;28;19927;-74
2022/05/21 14:26:31;;;;;;;;;;;17.80;99.90;;;;;;5102295;28;19920;-76
2022/05/21 14:28:57;;;;;;;;;;;17.60;99.90;;;;;;5062035;28;19920;-75
2022/05/21 14:31:34;;;;;;;;;;;17.50;99.90;;;;;;5119634;27;19975;-76
2022/05/21 14:34:02;;;;;;;;;;;17.40;99.90;;;;;;5092131;28;20094;-75
2022/05/21 14:36:33;;;;;;;;;;;17.30;99.90;;;;;;5091714;28;20382;-78
2022/05/21 14:38:58;;;;;;;;;;;16.90;99.90;;;;;;5095173;28;20371;-77
2022/05/21 14:41:28;;;;;;;;;;;16.80;99.90;;;;;;5088266;28;19935;-78
2022/05/21 14:43:54;;;;;;;;;;;16.70;99.90;;;;;;5119116;27;19927;-76
2022/05/21 14:49:04;;;;;;;;;;;16.60;99.90;;;;;;5091428;28;19980;-75
2022/05/21 14:54:14;;;;;;;;;;;16.70;99.90;;;;;;5074743;28;20290;-75
2022/05/21 14:56:40;;;;;;;;;;;16.80;99.90;;;;;;5082182;28;19920;-78
2022/05/21 14:59:05;;;;;;;;;;;16.80;99.90;;;;;;5091441;28;19920;-76
2022/05/21 15:01:31;;;;;;;;;;;16.80;99.90;;;;;;5086709;28;19925;-73
2022/05/21 15:03:57;;;;;;;;;;;16.60;99.90;;;;;;5090663;28;19920;-75
2022/05/21 15:06:27;;;;;;;;;;;16.60;99.90;;;;;;5097298;28;19924;-76
2022/05/21 15:08:57;;;;;;;;;;;16.70;99.90;;;;;;5091379;28;20424;-75